sensor_id;sensor_type;location;lat;lon;timestamp;pressure;altitude;pressure_sealevel;temperature;humidity
3132;BME280;62090;52.330;9.104;2023-12-28T00:01:41;100263.63;;;9.98;75.44
3132;BME280;62090;52.330;9.104;2023-12-28T00:08:26;100355.81;;;10.24;79.88
3132;BME280;62090;52.330;9.104;2023-12-28T00:11:15;100200.50;;;9.37;80.87
3132;BME280;62090;52.330;9.104;2023-12-28T00:14:19;100072.50;;;8.52;83.18
3132;BME280;62090;52.330;9.104;2023-12-28T00:17:08;100390.34;;;10.12;84.32
3132;BME280;62090;52.330;9.104;2023-12-28T00:19:57;99976.28;;;7.88;85.03
3132;BME280;62090;52.330;9.104;2023-12-28T00:22:59;100371.56;;;10.07;87.98
3132;BME280;62090;52.330;9.104;2023-12-28T00:25:49;100397.91;;;10.50;86.55
3132;BME280;62090;52.330;9.104;2023-12-28T00:28:47;100068.13;;;8.45;89.66
3132;BME280;62090;52.330;9.104;2023-12-28T00:32:18;100091.44;;;8.29;93.60
3132;BME280;62090;52.330;9.104;2023-12-28T01:41:14;100133.75;;;7.95;100.00
3132;BME280;62090;52.330;9.104;2023-12-28T02:04:37;100427.78;;;9.78;100.00
3132;BME280;62090;52.330;9.104;2023-12-28T02:07:13;100325.53;;;9.19;100.00
3132;BME280;62090;52.330;9.104;2023-12-28T02:09:44;100425.31;;;9.82;100.00
3132;BME280;62090;52.330;9.104;2023-12-28T02:12:14;100426.97;;;9.80;100.00
3132;BME280;62090;52.330;9.104;2023-12-28T02:14:44;100299.78;;;9.04;100.00
3132;BME280;62090;52.330;9.104;2023-12-28T02:17:17;100316.19;;;9.18;100.00
3132;BME280;62090;52.330;9.104;2023-12-28T02:19:54;100385.97;;;9.68;100.00
3132;BME280;62090;52.330;9.104;2023-12-28T02:22:25;100404.84;;;9.76;100.00
3132;BME280;62090;52.330;9.104;2023-12-28T02:25:07;100298.88;;;9.02;100.00
3132;BME280;62090;52.330;9.104;2023-12-28T02:27:40;100433.34;;;9.99;100.00
3132;BME280;62090;52.330;9.104;2023-12-28T02:30:11;100241.44;;;8.72;100.00
3132;BME280;62090;52.330;9.104;2023-12-28T02:32:49;100384.19;;;9.64;100.00
3132;BME280;62090;52.330;9.104;2023-12-28T02:35:24;100465.84;;;10.12;100.00
3132;BME280;62090;52.330;9.104;2023-12-28T02:37:58;100424.47;;;9.82;100.00
3132;BME280;62090;52.330;9.104;2023-12-28T02:40:35;100411.38;;;9.65;100.00
3132;BME280;62090;52.330;9.104;2023-12-28T02:43:08;100329.56;;;9.11;100.00
3132;BME280;62090;52.330;9.104;2023-12-28T02:45:39;100395.34;;;9.69;100.00
3132;BME280;62090;52.330;9.104;2023-12-28T02:48:09;100396.25;;;9.71;100.00
3132;BME280;62090;52.330;9.104;2023-12-28T02:50:39;100358.75;;;9.64;100.00
3132;BME280;62090;52.330;9.104;2023-12-28T02:53:09;100181.00;;;8.59;100.00
3132;BME280;62090;52.330;9.104;2023-12-28T02:55:42;100289.03;;;9.17;100.00
3132;BME280;62090;52.330;9.104;2023-12-28T02:58:12;100308.53;;;9.16;100.00
3132;BME280;62090;52.330;9.104;2023-12-28T03:00:44;100313.94;;;9.31;100.00
3132;BME280;62090;52.330;9.104;2023-12-28T03:03:16;100340.00;;;9.59;100.00
3132;BME280;62090;52.330;9.104;2023-12-28T03:05:47;100437.66;;;10.03;100.00
3132;BME280;62090;52.330;9.104;2023-12-28T03:08:17;100276.56;;;9.27;100.00
3132;BME280;62090;52.330;9.104;2023-12-28T03:10:50;100275.44;;;9.13;100.00
3132;BME280;62090;52.330;9.104;2023-12-28T03:13:22;100400.25;;;10.00;100.00
3132;BME280;62090;52.330;9.104;2023-12-28T03:15:52;100279.88;;;9.23;100.00
3132;BME280;62090;52.330;9.104;2023-12-28T03:18:22;100306.66;;;9.47;100.00
3132;BME280;62090;52.330;9.104;2023-12-28T03:20:52;100453.56;;;10.32;100.00
3132;BME280;62090;52.330;9.104;2023-12-28T03:23:23;100457.94;;;10.37;100.00
3132;BME280;62090;52.330;9.104;2023-12-28T03:25:55;100377.81;;;9.81;100.00
3132;BME280;62090;52.330;9.104;2023-12-28T03:28:25;100360.72;;;9.75;100.00
3132;BME280;62090;52.330;9.104;2023-12-28T03:30:55;100427.88;;;10.20;100.00
3132;BME280;62090;52.330;9.104;2023-12-28T03:33:27;100297.34;;;9.46;100.00
3132;BME280;62090;52.330;9.104;2023-12-28T03:35:57;100399.53;;;10.06;100.00
3132;BME280;62090;52.330;9.104;2023-12-28T03:38:27;100304.00;;;9.42;100.00
3132;BME280;62090;52.330;9.104;2023-12-28T03:41:00;100332.59;;;9.69;100.00
3132;BME280;62090;52.330;9.104;2023-12-28T03:43:30;100378.25;;;10.02;100.00
3132;BME280;62090;52.330;9.104;2023-12-28T03:46:00;100297.97;;;9.36;100.00
3132;BME280;62090;52.330;9.104;2023-12-28T03:48:30;100464.06;;;10.45;100.00
3132;BME280;62090;52.330;9.104;2023-12-28T03:51:01;100391.94;;;10.07;100.00
3132;BME280;62090;52.330;9.104;2023-12-28T03:53:31;100249.41;;;9.25;100.00
3132;BME280;62090;52.330;9.104;2023-12-28T03:56:03;100387.41;;;9.94;100.00
3132;BME280;62090;52.330;9.104;2023-12-28T03:58:33;100419.25;;;10.14;100.00
3132;BME280;62090;52.330;9.104;2023-12-28T04:01:04;100166.06;;;8.73;100.00
3132;BME280;62090;52.330;9.104;2023-12-28T04:03:34;100200.06;;;8.78;100.00
3132;BME280;62090;52.330;9.104;2023-12-28T04:06:07;100270.03;;;9.39;100.00
3132;BME280;62090;52.330;9.104;2023-12-28T04:08:37;100382.44;;;9.99;100.00
3132;BME280;62090;52.330;9.104;2023-12-28T04:11:10;100211.94;;;9.16;100.00
3132;BME280;62090;52.330;9.104;2023-12-28T04:13:40;100455.72;;;10.54;100.00
3132;BME280;62090;52.330;9.104;2023-12-28T04:16:12;100353.63;;;10.01;100.00
3132;BME280;62090;52.330;9.104;2023-12-28T04:18:42;100250.47;;;9.36;100.00
3132;BME280;62090;52.330;9.104;2023-12-28T04:21:13;100393.00;;;10.17;100.00
3132;BME280;62090;52.330;9.104;2023-12-28T04:23:43;100333.59;;;9.76;100.00
3132;BME280;62090;52.330;9.104;2023-12-28T04:26:17;100348.47;;;9.98;100.00
3132;BME280;62090;52.330;9.104;2023-12-28T04:28:47;100430.88;;;10.42;100.00
3132;BME280;62090;52.330;9.104;2023-12-28T04:31:18;100388.69;;;10.14;100.00
3132;BME280;62090;52.330;9.104;2023-12-28T04:33:48;100346.56;;;9.88;100.00
3132;BME280;62090;52.330;9.104;2023-12-28T04:36:18;100388.38;;;10.01;100.00
3132;BME280;62090;52.330;9.104;2023-12-28T04:38:48;100363.88;;;10.04;100.00
3132;BME280;62090;52.330;9.104;2023-12-28T04:41:23;100442.00;;;10.46;100.00
3132;BME280;62090;52.330;9.104;2023-12-28T04:43:54;100401.63;;;10.24;100.00
3132;BME280;62090;52.330;9.104;2023-12-28T04:46:24;100229.78;;;9.18;100.00
3132;BME280;62090;52.330;9.104;2023-12-28T04:48:54;100314.56;;;9.59;100.00
3132;BME280;62090;52.330;9.104;2023-12-28T04:51:25;100305.44;;;9.68;100.00
3132;BME280;62090;52.330;9.104;2023-12-28T04:53:55;100343.03;;;9.82;100.00
3132;BME280;62090;52.330;9.104;2023-12-28T04:56:29;100324.13;;;9.70;100.00
3132;BME280;62090;52.330;9.104;2023-12-28T04:58:59;100418.25;;;10.48;100.00
3132;BME280;62090;52.330;9.104;2023-12-28T05:01:29;100397.53;;;10.30;100.00
3132;BME280;62090;52.330;9.104;2023-12-28T05:04:00;100429.25;;;10.47;100.00
3132;BME280;62090;52.330;9.104;2023-12-28T05:06:30;100218.88;;;9.23;100.00
3132;BME280;62090;52.330;9.104;2023-12-28T05:09:00;100401.81;;;10.33;100.00
3132;BME280;62090;52.330;9.104;2023-12-28T05:11:33;100169.09;;;8.94;100.00
3132;BME280;62090;52.330;9.104;2023-12-28T05:14:03;100343.31;;;9.95;100.00
3132;BME280;62090;52.330;9.104;2023-12-28T05:16:36;100254.16;;;9.49;100.00
3132;BME280;62090;52.330;9.104;2023-12-28T05:19:06;100309.13;;;9.83;100.00
3132;BME280;62090;52.330;9.104;2023-12-28T05:21:36;100319.78;;;9.65;100.00
3132;BME280;62090;52.330;9.104;2023-12-28T05:24:06;100441.88;;;10.40;100.00
3132;BME280;62090;52.330;9.104;2023-12-28T05:26:39;100333.63;;;9.79;100.00
3132;BME280;62090;52.330;9.104;2023-12-28T05:29:09;100454.75;;;10.47;100.00
3132;BME280;62090;52.330;9.104;2023-12-28T05:31:39;100321.09;;;9.48;100.00
3132;BME280;62090;52.330;9.104;2023-12-28T05:34:09;100430.41;;;10.20;100.00
3132;BME280;62090;52.330;9.104;2023-12-28T05:36:39;100353.13;;;9.79;100.00
3132;BME280;62090;52.330;9.104;2023-12-28T05:39:12;100374.81;;;10.00;100.00
3132;BME280;62090;52.330;9.104;2023-12-28T05:41:45;100409.16;;;10.18;100.00
3132;BME280;62090;52.330;9.104;2023-12-28T05:44:17;100439.22;;;10.37;100.00
3132;BME280;62090;52.330;9.104;2023-12-28T05:46:48;100394.78;;;10.20;100.00
3132;BME280;62090;52.330;9.104;2023-12-28T05:49:19;100473.59;;;10.55;100.00
3132;BME280;62090;52.330;9.104;2023-12-28T05:51:49;100459.34;;;10.65;100.00
3132;BME280;62090;52.330;9.104;2023-12-28T05:54:19;100410.06;;;10.21;100.00
3132;BME280;62090;52.330;9.104;2023-12-28T05:56:52;100249.38;;;9.23;100.00
3132;BME280;62090;52.330;9.104;2023-12-28T05:59:22;100284.50;;;9.41;100.00
3132;BME280;62090;52.330;9.104;2023-12-28T06:01:53;100367.06;;;9.96;100.00
3132;BME280;62090;52.330;9.104;2023-12-28T06:04:24;100398.97;;;10.18;100.00
3132;BME280;62090;52.330;9.104;2023-12-28T06:07:22;100095.72;;;8.31;100.00
3132;BME280;62090;52.330;9.104;2023-12-28T06:10:53;100482.94;;;10.55;100.00
3132;BME280;62090;52.330;9.104;2023-12-28T06:17:39;100374.34;;;9.79;100.00
3132;BME280;62090;52.330;9.104;2023-12-28T06:21:10;100127.25;;;8.41;100.00
3132;BME280;62090;52.330;9.104;2023-12-28T06:24:44;100121.84;;;8.27;100.00
3132;BME280;62090;52.330;9.104;2023-12-28T06:27:48;100533.06;;;10.56;100.00
3132;BME280;62090;52.330;9.104;2023-12-28T06:31:04;100218.53;;;8.71;100.00
3132;BME280;62090;52.330;9.104;2023-12-28T06:34:41;100377.69;;;9.77;100.00
3132;BME280;62090;52.330;9.104;2023-12-28T06:37:48;100263.72;;;9.20;100.00
3132;BME280;62090;52.330;9.104;2023-12-28T06:40:18;100355.84;;;9.86;100.00
3132;BME280;62090;52.330;9.104;2023-12-28T06:42:53;100330.91;;;9.70;100.00
3132;BME280;62090;52.330;9.104;2023-12-28T06:45:40;100304.59;;;9.29;100.00
3132;BME280;62090;52.330;9.104;2023-12-28T06:48:22;100417.34;;;10.04;100.00
3132;BME280;62090;52.330;9.104;2023-12-28T06:50:59;100527.38;;;10.69;100.00
3132;BME280;62090;52.330;9.104;2023-12-28T06:53:32;100392.75;;;10.06;100.00
3132;BME280;62090;52.330;9.104;2023-12-28T06:56:10;100514.63;;;10.69;100.00
3132;BME280;62090;52.330;9.104;2023-12-28T06:58:54;100378.75;;;9.86;99.89
3132;BME280;62090;52.330;9.104;2023-12-28T07:01:39;100214.28;;;9.07;100.00
3132;BME280;62090;52.330;9.104;2023-12-28T07:04:13;100404.00;;;10.16;100.00
3132;BME280;62090;52.330;9.104;2023-12-28T07:07:03;100170.09;;;8.62;99.73
3132;BME280;62090;52.330;9.104;2023-12-28T07:09:50;100286.06;;;9.35;100.00
3132;BME280;62090;52.330;9.104;2023-12-28T07:12:55;100292.94;;;9.39;99.98
3132;BME280;62090;52.330;9.104;2023-12-28T07:15:43;100544.44;;;10.72;99.57
3132;BME280;62090;52.330;9.104;2023-12-28T07:18:20;100187.31;;;8.75;99.47
3132;BME280;62090;52.330;9.104;2023-12-28T07:20:59;100353.84;;;9.73;99.09
3132;BME280;62090;52.330;9.104;2023-12-28T07:23:44;100395.28;;;10.06;98.73
3132;BME280;62090;52.330;9.104;2023-12-28T07:26:27;100368.41;;;9.79;98.63
3132;BME280;62090;52.330;9.104;2023-12-28T07:29:13;100161.81;;;8.70;97.79
3132;BME280;62090;52.330;9.104;2023-12-28T07:32:21;100502.63;;;10.62;99.10
3132;BME280;62090;52.330;9.104;2023-12-28T07:35:08;100502.50;;;10.57;98.62
3132;BME280;62090;52.330;9.104;2023-12-28T07:37:54;100547.88;;;10.75;98.90
3132;BME280;62090;52.330;9.104;2023-12-28T07:40:45;100362.25;;;9.69;99.30
3132;BME280;62090;52.330;9.104;2023-12-28T07:43:33;100335.00;;;9.62;98.15
3132;BME280;62090;52.330;9.104;2023-12-28T07:46:11;100353.66;;;9.64;97.56
3132;BME280;62090;52.330;9.104;2023-12-28T07:48:59;100418.66;;;10.26;97.39
3132;BME280;62090;52.330;9.104;2023-12-28T07:52:11;100291.97;;;9.33;97.66
3132;BME280;62090;52.330;9.104;2023-12-28T07:55:19;100426.16;;;10.19;97.44
3132;BME280;62090;52.330;9.104;2023-12-28T07:58:14;100326.59;;;9.66;97.75
3132;BME280;62090;52.330;9.104;2023-12-28T08:00:56;100470.53;;;10.30;96.28
3132;BME280;62090;52.330;9.104;2023-12-28T08:03:57;100434.41;;;10.10;97.70
3132;BME280;62090;52.330;9.104;2023-12-28T08:06:37;100554.56;;;10.70;97.73
3132;BME280;62090;52.330;9.104;2023-12-28T08:09:23;100385.25;;;9.72;97.12
3132;BME280;62090;52.330;9.104;2023-12-28T08:12:24;100591.41;;;10.84;97.84
3132;BME280;62090;52.330;9.104;2023-12-28T08:15:14;100545.50;;;10.84;96.54
3132;BME280;62090;52.330;9.104;2023-12-28T08:17:48;100477.44;;;10.37;96.72
3132;BME280;62090;52.330;9.104;2023-12-28T08:20:43;100442.28;;;10.19;96.05
3132;BME280;62090;52.330;9.104;2023-12-28T08:23:39;100407.03;;;10.00;95.68
3132;BME280;62090;52.330;9.104;2023-12-28T08:26:23;100570.19;;;10.85;95.91
3132;BME280;62090;52.330;9.104;2023-12-28T08:29:06;100378.56;;;9.79;95.55
3132;BME280;62090;52.330;9.104;2023-12-28T08:31:43;100362.97;;;9.63;96.31
3132;BME280;62090;52.330;9.104;2023-12-28T08:34:17;100525.41;;;10.56;95.72
3132;BME280;62090;52.330;9.104;2023-12-28T08:36:47;100362.59;;;9.45;95.22
3132;BME280;62090;52.330;9.104;2023-12-28T08:39:17;100390.66;;;9.89;95.32
3132;BME280;62090;52.330;9.104;2023-12-28T08:41:47;100410.44;;;9.99;95.17
3132;BME280;62090;52.330;9.104;2023-12-28T08:44:17;100581.50;;;10.98;94.79
3132;BME280;62090;52.330;9.104;2023-12-28T08:46:51;100394.03;;;9.86;94.23
3132;BME280;62090;52.330;9.104;2023-12-28T08:49:21;100441.78;;;9.98;94.07
3132;BME280;62090;52.330;9.104;2023-12-28T08:51:55;100387.88;;;9.77;94.27
3132;BME280;62090;52.330;9.104;2023-12-28T08:54:25;100576.16;;;10.86;95.32
3132;BME280;62090;52.330;9.104;2023-12-28T08:56:55;100521.09;;;10.53;94.65
3132;BME280;62090;52.330;9.104;2023-12-28T08:59:26;100572.78;;;10.87;94.73
3132;BME280;62090;52.330;9.104;2023-12-28T09:02:01;100498.81;;;10.43;94.32
3132;BME280;62090;52.330;9.104;2023-12-28T09:04:31;100535.38;;;10.45;94.49
3132;BME280;62090;52.330;9.104;2023-12-28T09:07:04;100429.94;;;9.98;94.42
3132;BME280;62090;52.330;9.104;2023-12-28T09:09:36;100423.97;;;9.98;94.46
3132;BME280;62090;52.330;9.104;2023-12-28T09:12:11;100361.50;;;9.73;93.73
3132;BME280;62090;52.330;9.104;2023-12-28T09:14:51;100315.69;;;9.32;93.87
3132;BME280;62090;52.330;9.104;2023-12-28T09:17:57;100454.25;;;10.23;93.12
3132;BME280;62090;52.330;9.104;2023-12-28T09:21:12;100510.94;;;10.55;92.94
3132;BME280;62090;52.330;9.104;2023-12-28T09:45:53;100377.13;;;9.88;92.43
3132;BME280;62090;52.330;9.104;2023-12-28T09:48:24;100362.13;;;9.63;91.68
3132;BME280;62090;52.330;9.104;2023-12-28T09:50:55;100580.75;;;11.04;91.25
3132;BME280;62090;52.330;9.104;2023-12-28T09:53:26;100443.47;;;10.35;90.68
3132;BME280;62090;52.330;9.104;2023-12-28T09:55:56;100450.28;;;10.37;90.94
3132;BME280;62090;52.330;9.104;2023-12-28T09:58:33;100466.03;;;10.60;91.47
3132;BME280;62090;52.330;9.104;2023-12-28T10:01:06;100566.66;;;11.21;91.38
3132;BME280;62090;52.330;9.104;2023-12-28T10:03:37;100453.88;;;10.47;91.29
3132;BME280;62090;52.330;9.104;2023-12-28T10:06:07;100560.16;;;11.36;90.20
3132;BME280;62090;52.330;9.104;2023-12-28T10:08:44;100554.81;;;11.24;90.24
3132;BME280;62090;52.330;9.104;2023-12-28T10:11:15;100417.59;;;10.58;89.24
3132;BME280;62090;52.330;9.104;2023-12-28T10:13:49;100474.81;;;10.74;89.68
3132;BME280;62090;52.330;9.104;2023-12-28T10:16:19;100528.28;;;11.16;89.31
3132;BME280;62090;52.330;9.104;2023-12-28T10:18:49;100379.50;;;10.20;89.46
3132;BME280;62090;52.330;9.104;2023-12-28T10:21:19;100496.50;;;10.97;89.80
3132;BME280;62090;52.330;9.104;2023-12-28T10:23:49;100489.75;;;10.99;89.92
3132;BME280;62090;52.330;9.104;2023-12-28T10:26:19;100524.78;;;11.10;89.07
3132;BME280;62090;52.330;9.104;2023-12-28T10:28:57;100248.78;;;9.35;88.63
3132;BME280;62090;52.330;9.104;2023-12-28T10:31:29;100506.03;;;11.08;89.29
3132;BME280;62090;52.330;9.104;2023-12-28T10:34:00;100490.88;;;10.70;89.29
3132;BME280;62090;52.330;9.104;2023-12-28T10:36:32;100505.06;;;11.01;89.33
3132;BME280;62090;52.330;9.104;2023-12-28T10:39:05;100424.13;;;10.44;89.21
3132;BME280;62090;52.330;9.104;2023-12-28T10:41:41;100578.25;;;11.50;89.25
3132;BME280;62090;52.330;9.104;2023-12-28T10:44:19;100363.16;;;10.11;88.64
3132;BME280;62090;52.330;9.104;2023-12-28T10:46:55;100378.03;;;10.32;89.05
3132;BME280;62090;52.330;9.104;2023-12-28T10:49:30;100595.09;;;11.42;89.26
3132;BME280;62090;52.330;9.104;2023-12-28T10:52:01;100390.84;;;10.37;89.58
3132;BME280;62090;52.330;9.104;2023-12-28T10:54:43;100248.84;;;9.38;88.84
3132;BME280;62090;52.330;9.104;2023-12-28T10:57:20;100419.81;;;10.42;88.74
3132;BME280;62090;52.330;9.104;2023-12-28T11:00:02;100451.63;;;10.61;89.26
3132;BME280;62090;52.330;9.104;2023-12-28T11:02:38;100526.19;;;10.95;89.20
3132;BME280;62090;52.330;9.104;2023-12-28T11:05:11;100383.22;;;9.96;89.97
3132;BME280;62090;52.330;9.104;2023-12-28T11:07:42;100463.31;;;10.52;89.52
3132;BME280;62090;52.330;9.104;2023-12-28T11:10:13;100501.34;;;10.84;89.96
3132;BME280;62090;52.330;9.104;2023-12-28T11:12:44;100573.53;;;11.26;90.11
3132;BME280;62090;52.330;9.104;2023-12-28T11:15:17;100431.81;;;10.46;90.42
3132;BME280;62090;52.330;9.104;2023-12-28T11:17:48;100516.28;;;11.11;89.73
3132;BME280;62090;52.330;9.104;2023-12-28T11:20:18;100522.13;;;11.04;88.64
3132;BME280;62090;52.330;9.104;2023-12-28T11:22:49;100423.44;;;10.53;89.05
3132;BME280;62090;52.330;9.104;2023-12-28T11:25:20;100444.06;;;10.65;89.09
3132;BME280;62090;52.330;9.104;2023-12-28T11:27:50;100522.50;;;11.25;89.05
3132;BME280;62090;52.330;9.104;2023-12-28T11:30:25;100508.88;;;11.23;88.34
3132;BME280;62090;52.330;9.104;2023-12-28T11:32:56;100558.69;;;11.51;88.12
3132;BME280;62090;52.330;9.104;2023-12-28T11:35:34;100548.38;;;11.44;88.29
3132;BME280;62090;52.330;9.104;2023-12-28T11:38:06;100474.47;;;10.99;88.14
3132;BME280;62090;52.330;9.104;2023-12-28T11:40:41;100448.19;;;11.04;87.86
3132;BME280;62090;52.330;9.104;2023-12-28T11:43:20;100420.63;;;10.84;87.87
3132;BME280;62090;52.330;9.104;2023-12-28T11:45:55;100498.09;;;11.39;87.24
3132;BME280;62090;52.330;9.104;2023-12-28T11:48:26;100413.88;;;10.86;87.42
3132;BME280;62090;52.330;9.104;2023-12-28T11:50:58;100472.53;;;11.36;87.62
3132;BME280;62090;52.330;9.104;2023-12-28T11:53:28;100415.53;;;10.84;86.92
3132;BME280;62090;52.330;9.104;2023-12-28T11:56:02;100553.94;;;11.72;86.44
3132;BME280;62090;52.330;9.104;2023-12-28T11:58:36;100535.94;;;11.63;87.16
3132;BME280;62090;52.330;9.104;2023-12-28T12:01:08;100534.22;;;11.62;87.16
3132;BME280;62090;52.330;9.104;2023-12-28T12:03:39;100446.72;;;11.18;87.68
3132;BME280;62090;52.330;9.104;2023-12-28T12:06:09;100483.69;;;11.42;86.91
3132;BME280;62090;52.330;9.104;2023-12-28T12:08:40;100481.09;;;11.39;86.81
3132;BME280;62090;52.330;9.104;2023-12-28T12:11:10;100372.00;;;10.74;86.61
3132;BME280;62090;52.330;9.104;2023-12-28T12:13:40;100439.13;;;11.21;86.07
3132;BME280;62090;52.330;9.104;2023-12-28T12:16:13;100364.53;;;10.84;86.12
3132;BME280;62090;52.330;9.104;2023-12-28T12:18:43;100505.75;;;11.89;85.80
3132;BME280;62090;52.330;9.104;2023-12-28T12:21:14;100464.34;;;11.55;85.50
3132;BME280;62090;52.330;9.104;2023-12-28T12:23:45;100438.69;;;11.46;86.28
3132;BME280;62090;52.330;9.104;2023-12-28T12:26:17;100385.63;;;11.24;85.33
3132;BME280;62090;52.330;9.104;2023-12-28T12:28:48;100313.63;;;10.87;83.95
3132;BME280;62090;52.330;9.104;2023-12-28T12:31:23;100298.63;;;10.54;85.50
3132;BME280;62090;52.330;9.104;2023-12-28T12:33:57;100404.59;;;11.41;84.85
3132;BME280;62090;52.330;9.104;2023-12-28T12:36:28;100379.66;;;11.23;84.98
3132;BME280;62090;52.330;9.104;2023-12-28T12:38:58;100305.81;;;10.77;84.46
3132;BME280;62090;52.330;9.104;2023-12-28T12:41:28;100482.88;;;11.96;85.04
3132;BME280;62090;52.330;9.104;2023-12-28T12:43:58;100327.41;;;10.98;84.55
3132;BME280;62090;52.330;9.104;2023-12-28T12:46:31;100407.94;;;11.38;84.29
3132;BME280;62090;52.330;9.104;2023-12-28T12:49:01;100336.97;;;11.10;84.05
3132;BME280;62090;52.330;9.104;2023-12-28T12:51:32;100397.88;;;11.48;83.78
3132;BME280;62090;52.330;9.104;2023-12-28T12:54:02;100488.13;;;12.05;84.69
3132;BME280;62090;52.330;9.104;2023-12-28T12:56:32;100435.69;;;11.71;83.83
3132;BME280;62090;52.330;9.104;2023-12-28T12:59:03;100303.72;;;11.06;83.18
3132;BME280;62090;52.330;9.104;2023-12-28T13:01:35;100435.69;;;11.71;83.77
3132;BME280;62090;52.330;9.104;2023-12-28T13:04:06;100470.19;;;12.02;84.61
3132;BME280;62090;52.330;9.104;2023-12-28T13:06:36;100374.00;;;11.41;82.24
3132;BME280;62090;52.330;9.104;2023-12-28T13:09:06;100363.75;;;11.39;83.39
3132;BME280;62090;52.330;9.104;2023-12-28T13:11:41;100476.75;;;11.83;83.82
3132;BME280;62090;52.330;9.104;2023-12-28T13:14:11;100190.44;;;10.33;83.69
3132;BME280;62090;52.330;9.104;2023-12-28T13:16:47;100455.56;;;11.91;83.57
3132;BME280;62090;52.330;9.104;2023-12-28T13:19:44;100326.31;;;10.83;84.65
3132;BME280;62090;52.330;9.104;2023-12-28T13:22:35;100361.75;;;11.20;84.50
3132;BME280;62090;52.330;9.104;2023-12-28T13:25:15;100331.41;;;10.84;84.00
3132;BME280;62090;52.330;9.104;2023-12-28T13:27:45;100415.69;;;11.44;83.73
3132;BME280;62090;52.330;9.104;2023-12-28T13:30:16;100473.22;;;11.77;83.44
3132;BME280;62090;52.330;9.104;2023-12-28T13:32:49;100353.09;;;11.09;84.80
3132;BME280;62090;52.330;9.104;2023-12-28T13:35:19;100370.22;;;11.18;84.58
3132;BME280;62090;52.330;9.104;2023-12-28T13:37:49;100442.41;;;11.66;84.38
3132;BME280;62090;52.330;9.104;2023-12-28T13:40:19;100426.84;;;11.50;83.96
3132;BME280;62090;52.330;9.104;2023-12-28T13:42:49;100483.47;;;11.78;83.39
3132;BME280;62090;52.330;9.104;2023-12-28T13:45:19;100490.34;;;11.82;83.69
3132;BME280;62090;52.330;9.104;2023-12-28T13:47:51;100442.19;;;11.51;83.54
3132;BME280;62090;52.330;9.104;2023-12-28T13:50:22;100305.00;;;10.78;83.25
3132;BME280;62090;52.330;9.104;2023-12-28T13:52:52;100385.66;;;11.27;83.96
3132;BME280;62090;52.330;9.104;2023-12-28T13:55:23;100232.13;;;10.36;83.92
3132;BME280;62090;52.330;9.104;2023-12-28T13:57:55;100378.50;;;11.06;83.44
3132;BME280;62090;52.330;9.104;2023-12-28T14:00:26;100385.47;;;11.15;82.89
3132;BME280;62090;52.330;9.104;2023-12-28T14:02:58;100328.22;;;10.96;83.29
3132;BME280;62090;52.330;9.104;2023-12-28T14:05:29;100444.00;;;11.60;83.21
3132;BME280;62090;52.330;9.104;2023-12-28T14:08:02;100350.28;;;10.94;83.75
3132;BME280;62090;52.330;9.104;2023-12-28T14:10:32;100348.66;;;10.99;83.75
3132;BME280;62090;52.330;9.104;2023-12-28T14:13:05;100379.44;;;11.10;82.89
3132;BME280;62090;52.330;9.104;2023-12-28T14:15:35;100485.25;;;11.85;80.52
3132;BME280;62090;52.330;9.104;2023-12-28T14:18:08;100430.03;;;11.36;81.75
3132;BME280;62090;52.330;9.104;2023-12-28T14:20:38;100326.91;;;10.70;81.62
3132;BME280;62090;52.330;9.104;2023-12-28T14:23:09;100410.41;;;11.32;82.82
3132;BME280;62090;52.330;9.104;2023-12-28T14:25:40;100361.50;;;11.05;82.28
3132;BME280;62090;52.330;9.104;2023-12-28T14:28:11;100317.91;;;10.88;81.57
3132;BME280;62090;52.330;9.104;2023-12-28T14:30:41;100448.28;;;11.61;81.85
3132;BME280;62090;52.330;9.104;2023-12-28T14:33:15;100407.84;;;11.31;82.36
3132;BME280;62090;52.330;9.104;2023-12-28T14:35:45;100337.50;;;10.92;81.95
3132;BME280;62090;52.330;9.104;2023-12-28T14:38:16;100456.16;;;11.74;81.61
3132;BME280;62090;52.330;9.104;2023-12-28T14:40:46;100490.38;;;11.84;81.36
3132;BME280;62090;52.330;9.104;2023-12-28T14:43:18;100480.91;;;11.80;81.48
3132;BME280;62090;52.330;9.104;2023-12-28T14:45:48;100316.19;;;10.87;80.84
3132;BME280;62090;52.330;9.104;2023-12-28T14:48:21;100457.63;;;11.60;81.87
3132;BME280;62090;52.330;9.104;2023-12-28T14:50:51;100292.03;;;10.66;82.67
3132;BME280;62090;52.330;9.104;2023-12-28T14:53:21;100445.59;;;11.53;82.21
3132;BME280;62090;52.330;9.104;2023-12-28T14:55:52;100293.56;;;10.56;82.80
3132;BME280;62090;52.330;9.104;2023-12-28T14:58:22;100366.63;;;11.07;81.93
3132;BME280;62090;52.330;9.104;2023-12-28T15:00:53;100411.34;;;11.39;81.04
3132;BME280;62090;52.330;9.104;2023-12-28T15:03:26;100325.63;;;10.94;81.08
3132;BME280;62090;52.330;9.104;2023-12-28T15:05:56;100418.09;;;11.34;80.63
3132;BME280;62090;52.330;9.104;2023-12-28T15:08:26;100438.03;;;11.59;80.70
3132;BME280;62090;52.330;9.104;2023-12-28T15:10:56;100360.66;;;11.06;80.94
3132;BME280;62090;52.330;9.104;2023-12-28T15:13:27;100423.28;;;11.40;80.63
3132;BME280;62090;52.330;9.104;2023-12-28T15:15:57;100454.13;;;11.55;81.14
3132;BME280;62090;52.330;9.104;2023-12-28T15:18:31;100454.97;;;11.54;81.21
3132;BME280;62090;52.330;9.104;2023-12-28T15:21:02;100449.53;;;11.33;81.15
3132;BME280;62090;52.330;9.104;2023-12-28T15:23:32;100469.50;;;11.58;80.70
3132;BME280;62090;52.330;9.104;2023-12-28T15:26:03;100469.66;;;11.67;81.21
3132;BME280;62090;52.330;9.104;2023-12-28T15:28:33;100292.78;;;10.60;80.06
3132;BME280;62090;52.330;9.104;2023-12-28T15:31:03;100475.72;;;11.74;79.74
3132;BME280;62090;52.330;9.104;2023-12-28T15:33:36;100342.63;;;10.95;79.84
3132;BME280;62090;52.330;9.104;2023-12-28T15:36:06;100455.75;;;11.50;80.34
3132;BME280;62090;52.330;9.104;2023-12-28T15:38:36;100432.56;;;11.35;81.22
3132;BME280;62090;52.330;9.104;2023-12-28T15:41:08;100428.31;;;11.37;80.54
3132;BME280;62090;52.330;9.104;2023-12-28T15:43:38;100459.34;;;11.61;79.41